Delaware — WYU8553 — position and weather

sailwx.info

Track history (hours):
 
Tides and Currents Weather Stations Pressure Air Temp Water Temp Dewpoint Dewpoint Depression Visibility Wind Speed Wind Dir Waves Ship Positions

Delaware

Owner: DELAWARE RIVER & BAY AUTHORITY, NORTH CAPE MAY, NJ. More information available from US FCC via Universal Licensing System and Coast Guard Vessel Documentation Center.

Last reported at 2018-Jul-20 13:40 UTC. Time now 2018-Jul-22 20:17 UTC.
Position N 38°49' W 075°05'.

; draft 2.2 m.

Type: Ship. MMSI: 366914210.

Date/timePositionNaut miles runAvg speedWind from/ knotsBaromVisibWave heightAir tempDewpointWater temp
2018-Jul-20 13:40N 38°49' W 075°05'2 9.9
2018-Jul-20 13:29N 38°48' W 075°07'1 1.4
2018-Jul-20 12:58N 38°47' W 075°07'4 8.3
2018-Jul-20 12:27N 38°51' W 075°06'612.9
2018-Jul-20 11:59N 38°56' W 075°01'4 7.5
2018-Jul-20 11:30N 38°58' W 074°58'0 0.0
2018-Jul-20 11:00N 38°58' W 074°58'0 0.0
2018-Jul-20 10:09N 38°58' W 074°58'0 0.0
2018-Jul-20 09:51N 38°58' W 074°58'0 0.0
2018-Jul-20 09:21N 38°58' W 074°58'0 0.0
2018-Jul-20 08:51N 38°58' W 074°58'0 0.0
2018-Jul-20 07:54N 38°58' W 074°58'0 0.0
2018-Jul-20 07:12N 38°58' W 074°58'0 0.0
2018-Jul-20 06:54N 38°58' W 074°58'0 0.0
2018-Jul-20 06:27N 38°58' W 074°58'0 0.0
2018-Jul-20 05:57N 38°58' W 074°58'0 0.0
2018-Jul-20 05:31N 38°58' W 074°58'0 0.0
2018-Jul-20 05:00N 38°58' W 074°58'0 0.0
2018-Jul-20 04:24N 38°58' W 074°58'0 0.0
2018-Jul-20 03:27N 38°58' W 074°58'0 0.0
2018-Jul-20 02:54N 38°58' W 074°58'0 0.0
2018-Jul-20 01:10N 38°58' W 074°58'0 2.9
2018-Jul-20 01:00N 38°58' W 074°58'611.3
2018-Jul-20 00:30N 38°54' W 075°03'612.0
2018-Jul-19 23:59N 38°48' W 075°07'1 2.9
2018-Jul-19 23:30N 38°47' W 075°07'3 6.4
2018-Jul-19 22:59N 38°50' W 075°06'10 7.6
2018-Jul-19 21:37N 38°58' W 074°58'2 9.1
2018-Jul-19 21:22N 38°57' W 075°00'411.4
2018-Jul-19 21:00N 38°53' W 075°03'612.0
2018-Jul-19 20:30N 38°48' W 075°07'1 2.4
2018-Jul-19 19:59N 38°47' W 075°07'13 5.7
2018-Jul-19 17:39N 38°58' W 074°58'13 8.0
2018-Jul-19 16:00N 38°47' W 075°07'11 5.0
2018-Jul-19 13:52N 38°56' W 075°00'512.0
2018-Jul-19 13:29N 38°52' W 075°04'511.1
2018-Jul-19 13:00N 38°48' W 075°07'1 1.9
2018-Jul-19 12:30N 38°47' W 075°07'3 5.1
2018-Jul-19 12:00N 38°50' W 075°07'612.7
2018-Jul-19 11:30N 38°55' W 075°02'5 9.8
2018-Jul-19 11:00N 38°58' W 074°58'0 0.0
2018-Jul-19 10:30N 38°58' W 074°58'0 0.0
2018-Jul-19 10:00N 38°58' W 074°58'0 0.0
2018-Jul-19 09:30N 38°58' W 074°58'0 0.0
2018-Jul-19 09:00N 38°58' W 074°58'0 0.0
2018-Jul-19 08:27N 38°58' W 074°58'0 0.0
2018-Jul-19 08:00N 38°58' W 074°58'0 0.0
2018-Jul-19 07:30N 38°58' W 074°58'0 0.0
2018-Jul-19 07:00N 38°58' W 074°58'0 0.0
2018-Jul-19 06:30N 38°58' W 074°58'0 0.0
2018-Jul-19 05:54N 38°58' W 074°58'0 0.0
2018-Jul-19 05:30N 38°58' W 074°58'0 0.0
2018-Jul-19 04:00N 38°58' W 074°58'0 0.0
2018-Jul-19 03:30N 38°58' W 074°58'0 0.0
2018-Jul-19 03:00N 38°58' W 074°58'0 0.0
2018-Jul-19 02:30N 38°58' W 074°58'0 0.0
2018-Jul-19 02:00N 38°58' W 074°58'0 0.0
2018-Jul-19 01:30N 38°58' W 074°58'1 2.0
2018-Jul-19 01:01N 38°58' W 074°59'611.2
2018-Jul-19 00:30N 38°53' W 075°04'611.1
2018-Jul-18 23:59N 38°48' W 075°07'1 3.1
2018-Jul-18 23:30N 38°47' W 075°07'4 7.3
2018-Jul-18 23:00N 38°51' W 075°06'9 1.6
2018-Jul-18 17:27N 38°58' W 074°59'1012.7
2018-Jul-18 16:39N 38°50' W 075°07'3 8.3
2018-Jul-18 16:20N 38°47' W 075°07'13 6.2
2018-Jul-18 14:11N 38°58' W 074°58'1110.2
2018-Jul-18 13:08N 38°50' W 075°07'211.4
2018-Jul-18 12:56N 38°48' W 075°07'1 1.2
2018-Jul-18 12:17N 38°47' W 075°07'711.2
2018-Jul-18 11:39N 38°53' W 075°04'313.2
2018-Jul-18 11:26N 38°56' W 075°01'4 4.0
2018-Jul-18 10:31N 38°58' W 074°58'0 0.0
2018-Jul-18 09:59N 38°58' W 074°58'0 0.0
2018-Jul-18 09:29N 38°58' W 074°58'0 0.0
2018-Jul-18 08:59N 38°58' W 074°58'0 0.0
2018-Jul-18 08:26N 38°58' W 074°58'0 0.0
2018-Jul-18 07:59N 38°58' W 074°58'0 0.0
2018-Jul-18 06:38N 38°58' W 074°58'0 0.0
2018-Jul-18 06:14N 38°58' W 074°58'0 0.0
2018-Jul-18 05:47N 38°58' W 074°58'0 0.0
2018-Jul-18 05:23N 38°58' W 074°58'0 0.0
2018-Jul-18 04:59N 38°58' W 074°58'0 0.0
2018-Jul-18 04:26N 38°58' W 074°58'0 0.0
2018-Jul-18 03:56N 38°58' W 074°58'0 0.0
2018-Jul-18 03:20N 38°58' W 074°58'0 0.0
2018-Jul-18 02:59N 38°58' W 074°58'0 0.0
2018-Jul-18 02:29N 38°58' W 074°58'0 0.0
2018-Jul-18 01:50N 38°58' W 074°58'0 0.0
2018-Jul-18 01:29N 38°58' W 074°58'0 0.0
2018-Jul-18 00:50N 38°58' W 074°58'0 0.0
2018-Jul-18 00:26N 38°58' W 074°58'0 0.0
2018-Jul-17 23:50N 38°58' W 074°58'0 0.0
2018-Jul-17 23:05N 38°58' W 074°58'0 0.0
2018-Jul-17 22:51N 38°58' W 074°58'2 5.6
2018-Jul-17 22:30N 38°57' W 074°60'510.1
2018-Jul-17 22:00N 38°53' W 075°03'610.8
2018-Jul-17 21:28N 38°48' W 075°07'13 6.8
2018-Jul-17 19:35N 38°58' W 074°58'0 0.0
2018-Jul-17 19:28N 38°58' W 074°58'2 3.3
2018-Jul-17 19:01N 38°57' W 074°59'4 1.6
2018-Jul-17 16:37N 38°55' W 075°03'211.3
2018-Jul-17 16:29N 38°56' W 075°01'4 7.6
2018-Jul-17 15:59N 38°58' W 074°58'1 2.5
2018-Jul-17 15:31N 38°58' W 074°59'3 1.1
2018-Jul-17 13:01N 38°56' W 075°01'010.4
2018-Jul-17 13:01N 38°56' W 075°01'4 7.6
2018-Jul-17 12:31N 38°58' W 074°58'0 0.0
2018-Jul-17 11:56N 38°58' W 074°58'0 0.0
2018-Jul-17 11:28N 38°58' W 074°58'0 0.0
2018-Jul-17 10:01N 38°58' W 074°58'0 0.1
2018-Jul-17 09:58N 38°58' W 074°58'0 0.0
2018-Jul-17 09:26N 38°58' W 074°58'0 0.0
2018-Jul-17 08:55N 38°58' W 074°58'0 0.0
2018-Jul-17 08:13N 38°58' W 074°58'0 0.0
2018-Jul-17 07:58N 38°58' W 074°58'0 0.0
2018-Jul-17 07:25N 38°58' W 074°58'0 0.0
2018-Jul-17 06:55N 38°58' W 074°58'0 0.0
2018-Jul-17 06:28N 38°58' W 074°58'0 0.0
2018-Jul-17 04:25N 38°58' W 074°58'0 0.0
2018-Jul-17 03:50N 38°58' W 074°58'0 0.0
2018-Jul-17 03:29N 38°58' W 074°58'0 0.0
2018-Jul-17 02:49N 38°58' W 074°58'0 0.0
2018-Jul-17 02:01N 38°58' W 074°58'0 0.1
2018-Jul-17 01:59N 38°58' W 074°58'0 0.0
2018-Jul-17 01:22N 38°58' W 074°58'0 0.1
2018-Jul-17 01:01N 38°58' W 074°58'711.6
2018-Jul-17 00:24N 38°53' W 075°04'1 0.9
2018-Jul-16 22:57N 38°52' W 075°05'512.0
2018-Jul-16 22:30N 38°56' W 075°01'3 6.5
2018-Jul-16 22:00N 38°58' W 074°58'1 1.7
2018-Jul-16 21:30N 38°58' W 074°59'510.5
2018-Jul-16 21:01N 38°53' W 075°02'510.9
2018-Jul-16 20:30N 38°49' W 075°06'2 4.0
2018-Jul-16 20:01N 38°47' W 075°07'5 8.1
2018-Jul-16 19:23N 38°52' W 075°05'512.5
2018-Jul-16 19:00N 38°56' W 075°01'4 3.9
2018-Jul-16 18:03N 38°58' W 074°58'2 9.0
2018-Jul-16 17:50N 38°57' W 074°59'9 5.3
2018-Jul-16 16:06N 38°50' W 075°07'511.4
2018-Jul-16 15:38N 38°54' W 075°03'211.8
2018-Jul-16 15:28N 38°56' W 075°01'4 8.4
2018-Jul-16 15:00N 38°58' W 074°58'0 0.1
2018-Jul-16 14:30N 38°58' W 074°58'611.7
2018-Jul-16 14:00N 38°54' W 075°03'612.8
2018-Jul-16 13:30N 38°48' W 075°07'1 2.5
2018-Jul-16 12:58N 38°47' W 075°07'4 9.2
2018-Jul-16 12:30N 38°51' W 075°05'612.2
2018-Jul-16 12:00N 38°56' W 075°01'3 6.8
2018-Jul-16 11:30N 38°58' W 074°58'0 0.0
2018-Jul-16 11:00N 38°58' W 074°58'0 0.0
2018-Jul-16 10:31N 38°58' W 074°58'0 0.0
2018-Jul-16 09:58N 38°58' W 074°58'0 0.0
2018-Jul-16 09:28N 38°58' W 074°58'0 0.0
2018-Jul-16 08:58N 38°58' W 074°58'0 0.0
2018-Jul-16 08:28N 38°58' W 074°58'0 0.0
2018-Jul-16 07:58N 38°58' W 074°58'0 0.0
2018-Jul-16 07:28N 38°58' W 074°58'0 0.0
2018-Jul-16 06:52N 38°58' W 074°58'0 0.0
2018-Jul-16 06:25N 38°58' W 074°58'0 0.0
2018-Jul-16 05:58N 38°58' W 074°58'0 0.0
2018-Jul-16 05:22N 38°58' W 074°58'0 0.0
2018-Jul-16 04:49N 38°58' W 074°58'0 0.0
2018-Jul-16 04:22N 38°58' W 074°58'0 0.0
2018-Jul-16 03:49N 38°58' W 074°58'0 0.0
2018-Jul-16 01:03N 38°58' W 074°58'0 7.8
2018-Jul-16 01:00N 38°58' W 074°58'713.0
2018-Jul-16 00:30N 38°53' W 075°03'6 8.4
2018-Jul-15 23:44N 38°47' W 075°07'2 5.9
2018-Jul-15 23:21N 38°49' W 075°07'411.8
2018-Jul-15 23:00N 38°53' W 075°04'611.6
2018-Jul-15 22:30N 38°57' W 074°60'2 3.7
2018-Jul-15 22:01N 38°58' W 074°58'4 7.4
2018-Jul-15 21:31N 38°56' W 075°01'510.9
2018-Jul-15 21:01N 38°51' W 075°05'5 8.8
2018-Jul-15 20:30N 38°47' W 075°07'0 0.7
2018-Jul-15 19:58N 38°47' W 075°07'711.8
2018-Jul-15 19:25N 38°54' W 075°05'512.3
2018-Jul-15 18:59N 38°57' W 074°60'2 3.9
2018-Jul-15 18:30N 38°58' W 074°58'2 3.5
2018-Jul-15 18:00N 38°57' W 074°59'912.1
2018-Jul-15 17:13N 38°49' W 075°07'6 3.7
2018-Jul-15 15:36N 38°55' W 075°02'311.9
2018-Jul-15 15:19N 38°57' W 074°60'2 5.8
2018-Jul-15 15:00N 38°58' W 074°58'0 0.0
2018-Jul-15 14:31N 38°58' W 074°58'611.4
2018-Jul-15 14:00N 38°54' W 075°03'612.8
2018-Jul-15 13:30N 38°48' W 075°07'1 3.0
2018-Jul-15 13:00N 38°47' W 075°07'4 8.5
2018-Jul-15 12:30N 38°51' W 075°06'611.3
2018-Jul-15 12:00N 38°56' W 075°01'4 7.6
2018-Jul-15 11:30N 38°58' W 074°58'0 0.1
2018-Jul-15 11:00N 38°58' W 074°58'0 0.0
2018-Jul-15 10:30N 38°58' W 074°58'0 0.0
2018-Jul-15 09:57N 38°58' W 074°58'0 0.0
2018-Jul-15 09:30N 38°58' W 074°58'0 0.0
2018-Jul-15 09:00N 38°58' W 074°58'0 0.0
2018-Jul-15 08:18N 38°58' W 074°58'0 0.0
2018-Jul-15 08:00N 38°58' W 074°58'0 0.0
2018-Jul-15 07:27N 38°58' W 074°58'0 0.0
2018-Jul-15 07:00N 38°58' W 074°58'0 0.0
2018-Jul-15 06:30N 38°58' W 074°58'0 0.0
2018-Jul-15 06:00N 38°58' W 074°58'0 0.0
2018-Jul-15 05:27N 38°58' W 074°58'0 0.0
2018-Jul-15 05:00N 38°58' W 074°58'0 0.0
2018-Jul-15 04:30N 38°58' W 074°58'0 0.0
2018-Jul-15 04:00N 38°58' W 074°58'0 0.0
2018-Jul-15 03:27N 38°58' W 074°58'0 0.0
2018-Jul-15 03:00N 38°58' W 074°58'0 0.0
2018-Jul-15 02:30N 38°58' W 074°58'0 0.0
2018-Jul-15 02:00N 38°58' W 074°58'0 0.0
2018-Jul-15 01:25N 38°58' W 074°58'0 0.9
2018-Jul-15 01:00N 38°58' W 074°58'712.6
2018-Jul-15 00:28N 38°52' W 075°03'2 1.3
2018-Jul-14 22:38N 38°55' W 075°02'211.4
2018-Jul-14 22:26N 38°56' W 075°01'3 6.6
2018-Jul-14 22:00N 38°58' W 074°58'1 2.9
2018-Jul-14 21:30N 38°57' W 074°59'611.8
2018-Jul-14 21:00N 38°52' W 075°03'610.9
2018-Jul-14 20:30N 38°48' W 075°07'1 1.5
2018-Jul-14 20:00N 38°47' W 075°07'4 8.7
2018-Jul-14 19:30N 38°51' W 075°06'713.0
2018-Jul-14 19:00N 38°56' W 075°01'3 5.7
2018-Jul-14 18:29N 38°58' W 074°58'2 3.6
2018-Jul-14 18:00N 38°57' W 074°59'611.3
2018-Jul-14 17:30N 38°53' W 075°04'611.4
2018-Jul-14 16:59N 38°47' W 075°07'0 0.7
2018-Jul-14 16:30N 38°47' W 075°07'5 9.7
2018-Jul-14 16:00N 38°52' W 075°05'712.4
2018-Jul-14 15:28N 38°57' W 074°60'2 4.8
2018-Jul-14 15:00N 38°58' W 074°58'3 5.0
2018-Jul-14 14:30N 38°56' W 075°00'1111.0
2018-Jul-14 13:31N 38°47' W 075°07'0 0.1
2018-Jul-14 13:00N 38°47' W 075°07'4 8.8
2018-Jul-14 12:30N 38°51' W 075°06'611.4
2018-Jul-14 12:01N 38°56' W 075°01'4 7.1
2018-Jul-14 11:29N 38°58' W 074°58'0 0.1
2018-Jul-14 11:00N 38°58' W 074°58'0 0.0
2018-Jul-14 10:30N 38°58' W 074°58'0 0.0
2018-Jul-14 10:00N 38°58' W 074°58'0 0.0
2018-Jul-14 09:17N 38°58' W 074°58'0 0.0
2018-Jul-14 08:59N 38°58' W 074°58'0 0.0
2018-Jul-14 08:26N 38°58' W 074°58'0 0.0
2018-Jul-14 08:00N 38°58' W 074°58'0 0.0
2018-Jul-14 07:30N 38°58' W 074°58'0 0.0
2018-Jul-14 07:00N 38°58' W 074°58'0 0.0
2018-Jul-14 06:30N 38°58' W 074°58'0 0.0
2018-Jul-14 06:00N 38°58' W 074°58'0 0.0
2018-Jul-14 05:30N 38°58' W 074°58'0 0.0
2018-Jul-14 04:59N 38°58' W 074°58'0 0.0
2018-Jul-14 04:30N 38°58' W 074°58'0 0.0
2018-Jul-14 04:00N 38°58' W 074°58'0 0.0
2018-Jul-14 03:30N 38°58' W 074°58'0 0.0
2018-Jul-14 03:00N 38°58' W 074°58'0 0.0
2018-Jul-14 02:27N 38°58' W 074°58'0 0.0
2018-Jul-14 01:57N 38°58' W 074°58'0 0.1
2018-Jul-14 01:28N 38°58' W 074°58'2 5.1
2018-Jul-14 01:00N 38°57' W 075°00'612.8
2018-Jul-14 00:31N 38°51' W 075°04'5 9.1
2018-Jul-13 23:59N 38°47' W 075°07'1 2.7
2018-Jul-13 23:30N 38°48' W 075°07'5 9.9
2018-Jul-13 23:00N 38°53' W 075°05'7 9.9
2018-Jul-13 22:21N 38°58' W 074°59'1 3.7
2018-Jul-13 22:00N 38°58' W 074°58'2 3.2
2018-Jul-13 21:29N 38°57' W 074°59'611.9
2018-Jul-13 20:56N 38°51' W 075°03'510.8
2018-Jul-13 20:30N 38°48' W 075°07'1 1.5
2018-Jul-13 19:59N 38°47' W 075°07'5 9.4
2018-Jul-13 19:29N 38°51' W 075°05'9 6.6
2018-Jul-13 18:08N 38°58' W 074°58'2 8.9
2018-Jul-13 17:56N 38°57' W 074°59'711.3
2018-Jul-13 17:17N 38°51' W 075°04'311.2
2018-Jul-13 17:00N 38°48' W 075°07'1 2.4
2018-Jul-13 16:29N 38°47' W 075°07'4 7.3
2018-Jul-13 16:00N 38°50' W 075°06'1010.6
2018-Jul-13 15:02N 38°58' W 074°58'0 0.1
2018-Jul-13 14:57N 38°58' W 074°58'6 6.6
2018-Jul-13 14:00N 38°53' W 075°03'611.5
2018-Jul-13 13:30N 38°48' W 075°07'1 2.8
2018-Jul-13 13:00N 38°47' W 075°07'3 7.0
2018-Jul-13 12:30N 38°50' W 075°06'612.1
2018-Jul-13 12:00N 38°55' W 075°02'4 8.6
2018-Jul-13 11:30N 38°58' W 074°58'0 0.0
2018-Jul-13 10:55N 38°58' W 074°58'0 0.0
2018-Jul-13 10:25N 38°58' W 074°58'0 0.0
2018-Jul-13 09:55N 38°58' W 074°58'0 0.0
2018-Jul-13 09:25N 38°58' W 074°58'0 0.0
2018-Jul-13 08:58N 38°58' W 074°58'0 0.0
2018-Jul-13 08:28N 38°58' W 074°58'0 0.0
2018-Jul-13 07:58N 38°58' W 074°58'0 0.0
2018-Jul-13 07:28N 38°58' W 074°58'0 0.0
2018-Jul-13 06:58N 38°58' W 074°58'0 0.0
2018-Jul-13 06:28N 38°58' W 074°58'0 0.0
2018-Jul-13 05:58N 38°58' W 074°58'0 0.0
2018-Jul-13 05:28N 38°58' W 074°58'0 0.0
2018-Jul-13 04:58N 38°58' W 074°58'0 0.0
2018-Jul-13 04:28N 38°58' W 074°58'0 0.0
2018-Jul-13 03:58N 38°58' W 074°58'0 0.0
2018-Jul-13 03:28N 38°58' W 074°58'0 0.0
2018-Jul-13 02:55N 38°58' W 074°58'0 0.0
2018-Jul-13 02:28N 38°58' W 074°58'0 0.0
2018-Jul-13 01:58N 38°58' W 074°58'0 0.0
2018-Jul-13 01:25N 38°58' W 074°58'0 0.1
2018-Jul-13 01:01N 38°58' W 074°58'611.3
2018-Jul-13 00:30N 38°54' W 075°03'612.5
2018-Jul-13 00:00N 38°49' W 075°07'2 3.3
2018-Jul-12 23:28N 38°47' W 075°07'6 9.2
2018-Jul-12 22:51N 38°52' W 075°05'411.7
2018-Jul-12 22:29N 38°56' W 075°01'4 6.9
2018-Jul-12 21:57N 38°58' W 074°58'1 1.9
2018-Jul-12 21:28N 38°58' W 074°59'612.5
2018-Jul-12 20:57N 38°52' W 075°03'511.5
2018-Jul-12 20:30N 38°48' W 075°07'1 2.5
2018-Jul-12 20:00N 38°47' W 075°07'3 6.2
2018-Jul-12 19:31N 38°50' W 075°06'813.1
2018-Jul-12 18:55N 38°56' W 075°01'3 5.7
2018-Jul-12 18:23N 38°58' W 074°58'0 0.0
2018-Jul-12 17:59N 38°58' W 074°58'3 5.8
2018-Jul-12 17:30N 38°56' W 075°00'611.3
2018-Jul-12 17:00N 38°51' W 075°04'5 9.9
2018-Jul-12 16:30N 38°47' W 075°07'0 0.1
2018-Jul-12 16:00N 38°47' W 075°07'4 8.8
2018-Jul-12 15:31N 38°51' W 075°06'712.6
2018-Jul-12 14:57N 38°57' W 075°00'2 3.7
2018-Jul-12 14:19N 38°58' W 074°58'1 4.5
2018-Jul-12 14:00N 38°57' W 074°59'510.9
2018-Jul-12 13:30N 38°53' W 075°03'611.4
2018-Jul-12 12:59N 38°48' W 075°07'1 2.1
2018-Jul-12 12:30N 38°47' W 075°07'4 7.7
2018-Jul-12 12:00N 38°51' W 075°06'611.2
2018-Jul-12 11:28N 38°56' W 075°02'4 8.6
2018-Jul-12 11:00N 38°58' W 074°58'0 0.0
2018-Jul-12 10:31N 38°58' W 074°58'0 0.0
2018-Jul-12 10:00N 38°58' W 074°58'0 0.0
2018-Jul-12 09:28N 38°58' W 074°58'0 0.0
2018-Jul-12 08:58N 38°58' W 074°58'0 0.0
2018-Jul-12 08:25N 38°58' W 074°58'0 0.0
2018-Jul-12 07:58N 38°58' W 074°58'0 0.0
2018-Jul-12 07:28N 38°58' W 074°58'0 0.0
2018-Jul-12 06:58N 38°58' W 074°58'0 0.0
2018-Jul-12 02:58N 38°58' W 074°58'0 0.0
2018-Jul-12 02:25N 38°58' W 074°58'0 0.0
2018-Jul-12 01:55N 38°58' W 074°58'0 0.0
2018-Jul-12 01:16N 38°58' W 074°58'0 0.1
2018-Jul-12 01:01N 38°58' W 074°58'611.2
2018-Jul-12 00:30N 38°54' W 075°03'612.6
2018-Jul-11 23:59N 38°48' W 075°07'2 3.1
2018-Jul-11 23:30N 38°47' W 075°07'4 8.3
2018-Jul-11 23:00N 38°51' W 075°06'811.6
2018-Jul-11 22:20N 38°57' W 074°60'2 3.0
2018-Jul-11 21:38N 38°58' W 074°58'611.1
2018-Jul-11 21:03N 38°53' W 075°03'6 2.6
2018-Jul-11 18:39N 38°58' W 074°58'0 0.1
2018-Jul-11 18:01N 38°58' W 074°58'0 0.0
2018-Jul-11 18:00N 38°58' W 074°58'2 3.1
2018-Jul-11 17:28N 38°57' W 074°59'511.3
2018-Jul-11 17:00N 38°53' W 075°03'611.4
2018-Jul-11 16:30N 38°48' W 075°07'1 2.2
2018-Jul-11 16:00N 38°47' W 075°07'3 6.5
2018-Jul-11 15:30N 38°50' W 075°06'1011.8
2018-Jul-11 14:37N 38°58' W 074°58'0 0.1
2018-Jul-11 14:20N 38°58' W 074°58'1 3.1
2018-Jul-11 14:00N 38°57' W 074°59'510.9
2018-Jul-11 13:30N 38°53' W 075°03'612.0
2018-Jul-11 13:00N 38°48' W 075°07'1 2.3
2018-Jul-11 12:30N 38°47' W 075°07'3 6.6
2018-Jul-11 12:00N 38°50' W 075°06'611.9
2018-Jul-11 11:30N 38°55' W 075°02'4 9.0
2018-Jul-11 11:01N 38°58' W 074°58'0 0.0
2018-Jul-11 10:30N 38°58' W 074°58'0 0.0
2018-Jul-11 09:59N 38°58' W 074°58'0 0.0
2018-Jul-11 09:29N 38°58' W 074°58'0 0.0
2018-Jul-11 08:59N 38°58' W 074°58'0 0.0
2018-Jul-11 08:26N 38°58' W 074°58'0 0.0
2018-Jul-11 07:59N 38°58' W 074°58'0 0.0
2018-Jul-11 07:29N 38°58' W 074°58'0 0.0
2018-Jul-11 06:59N 38°58' W 074°58'0 0.0
2018-Jul-11 06:29N 38°58' W 074°58'0 0.0
2018-Jul-11 05:59N 38°58' W 074°58'0 0.0
2018-Jul-11 05:29N 38°58' W 074°58'0 0.0
2018-Jul-11 04:59N 38°58' W 074°58'0 0.0
2018-Jul-11 04:29N 38°58' W 074°58'0 0.0
2018-Jul-11 03:59N 38°58' W 074°58'0 0.0
2018-Jul-11 03:29N 38°58' W 074°58'0 0.0
2018-Jul-11 02:59N 38°58' W 074°58'0 0.0
2018-Jul-11 02:29N 38°58' W 074°58'0 0.0
2018-Jul-11 01:59N 38°58' W 074°58'0 0.0
2018-Jul-11 01:29N 38°58' W 074°58'0 0.0
2018-Jul-11 00:59N 38°58' W 074°58'0 0.0
2018-Jul-11 00:29N 38°58' W 074°58'0 0.0
2018-Jul-10 23:59N 38°58' W 074°58'0 0.1
2018-Jul-10 23:30N 38°58' W 074°58'7 3.1
2018-Jul-10 21:15N 38°53' W 075°04'311.7
2018-Jul-10 21:00N 38°55' W 075°02'4 8.5
2018-Jul-10 20:30N 38°58' W 074°58'0 0.2
2018-Jul-10 20:01N 38°58' W 074°58'611.6
2018-Jul-10 19:30N 38°54' W 075°03'612.0
2018-Jul-10 19:00N 38°49' W 075°07'2 3.2
2018-Jul-10 18:27N 38°47' W 075°07'3 7.4
2018-Jul-10 18:00N 38°50' W 075°06'713.0
2018-Jul-10 17:28N 38°56' W 075°01'4 7.6
2018-Jul-10 17:00N 38°58' W 074°58'1 2.5
2018-Jul-10 16:30N 38°57' W 074°59'510.9
2018-Jul-10 16:01N 38°53' W 075°03'611.3
2018-Jul-10 15:30N 38°48' W 075°07'1 2.3
2018-Jul-10 15:00N 38°47' W 075°07'4 7.4
2018-Jul-10 14:30N 38°51' W 075°06'612.6
2018-Jul-10 14:00N 38°56' W 075°01'  
Track history (hours):
 
Tides and Currents Weather Stations Pressure Air Temp Water Temp Dewpoint Dewpoint Depression Visibility Wind Speed Wind Dir Waves Ship Positions

Delaware

Owner: DELAWARE RIVER & BAY AUTHORITY, NORTH CAPE MAY, NJ. More information available from US FCC via Universal Licensing System and Coast Guard Vessel Documentation Center.

Last reported at 2018-Jul-20 13:40 UTC. Time now 2018-Jul-22 20:17 UTC.
Position N 38°49' W 075°05'.

; draft 2.2 m.

Type: Ship. MMSI: 366914210.

Date/timePositionNaut miles runAvg speedWind from/ knotsBaromVisibWave heightAir tempDewpointWater temp
2018-Jul-20 13:40N 38°49' W 075°05'2 9.9
2018-Jul-20 13:29N 38°48' W 075°07'1 1.4
2018-Jul-20 12:58N 38°47' W 075°07'4 8.3
2018-Jul-20 12:27N 38°51' W 075°06'612.9
2018-Jul-20 11:59N 38°56' W 075°01'4 7.5
2018-Jul-20 11:30N 38°58' W 074°58'0 0.0
2018-Jul-20 11:00N 38°58' W 074°58'0 0.0
2018-Jul-20 10:09N 38°58' W 074°58'0 0.0
2018-Jul-20 09:51N 38°58' W 074°58'0 0.0
2018-Jul-20 09:21N 38°58' W 074°58'0 0.0
2018-Jul-20 08:51N 38°58' W 074°58'0 0.0
2018-Jul-20 07:54N 38°58' W 074°58'0 0.0
2018-Jul-20 07:12N 38°58' W 074°58'0 0.0
2018-Jul-20 06:54N 38°58' W 074°58'0 0.0
2018-Jul-20 06:27N 38°58' W 074°58'0 0.0
2018-Jul-20 05:57N 38°58' W 074°58'0 0.0
2018-Jul-20 05:31N 38°58' W 074°58'0 0.0
2018-Jul-20 05:00N 38°58' W 074°58'0 0.0
2018-Jul-20 04:24N 38°58' W 074°58'0 0.0
2018-Jul-20 03:27N 38°58' W 074°58'0 0.0
2018-Jul-20 02:54N 38°58' W 074°58'0 0.0
2018-Jul-20 01:10N 38°58' W 074°58'0 2.9
2018-Jul-20 01:00N 38°58' W 074°58'611.3
2018-Jul-20 00:30N 38°54' W 075°03'612.0
2018-Jul-19 23:59N 38°48' W 075°07'1 2.9
2018-Jul-19 23:30N 38°47' W 075°07'3 6.4
2018-Jul-19 22:59N 38°50' W 075°06'10 7.6
2018-Jul-19 21:37N 38°58' W 074°58'2 9.1
2018-Jul-19 21:22N 38°57' W 075°00'411.4
2018-Jul-19 21:00N 38°53' W 075°03'612.0
2018-Jul-19 20:30N 38°48' W 075°07'1 2.4
2018-Jul-19 19:59N 38°47' W 075°07'13 5.7
2018-Jul-19 17:39N 38°58' W 074°58'13 8.0
2018-Jul-19 16:00N 38°47' W 075°07'11 5.0
2018-Jul-19 13:52N 38°56' W 075°00'512.0
2018-Jul-19 13:29N 38°52' W 075°04'511.1
2018-Jul-19 13:00N 38°48' W 075°07'1 1.9
2018-Jul-19 12:30N 38°47' W 075°07'3 5.1
2018-Jul-19 12:00N 38°50' W 075°07'612.7
2018-Jul-19 11:30N 38°55' W 075°02'5 9.8
2018-Jul-19 11:00N 38°58' W 074°58'0 0.0
2018-Jul-19 10:30N 38°58' W 074°58'0 0.0
2018-Jul-19 10:00N 38°58' W 074°58'0 0.0
2018-Jul-19 09:30N 38°58' W 074°58'0 0.0
2018-Jul-19 09:00N 38°58' W 074°58'0 0.0
2018-Jul-19 08:27N 38°58' W 074°58'0 0.0
2018-Jul-19 08:00N 38°58' W 074°58'0 0.0
2018-Jul-19 07:30N 38°58' W 074°58'0 0.0
2018-Jul-19 07:00N 38°58' W 074°58'0 0.0
2018-Jul-19 06:30N 38°58' W 074°58'0 0.0
2018-Jul-19 05:54N 38°58' W 074°58'0 0.0
2018-Jul-19 05:30N 38°58' W 074°58'0 0.0
2018-Jul-19 04:00N 38°58' W 074°58'0 0.0
2018-Jul-19 03:30N 38°58' W 074°58'0 0.0
2018-Jul-19 03:00N 38°58' W 074°58'0 0.0
2018-Jul-19 02:30N 38°58' W 074°58'0 0.0
2018-Jul-19 02:00N 38°58' W 074°58'0 0.0
2018-Jul-19 01:30N 38°58' W 074°58'1 2.0
2018-Jul-19 01:01N 38°58' W 074°59'611.2
2018-Jul-19 00:30N 38°53' W 075°04'611.1
2018-Jul-18 23:59N 38°48' W 075°07'1 3.1
2018-Jul-18 23:30N 38°47' W 075°07'4 7.3
2018-Jul-18 23:00N 38°51' W 075°06'9 1.6
2018-Jul-18 17:27N 38°58' W 074°59'1012.7
2018-Jul-18 16:39N 38°50' W 075°07'3 8.3
2018-Jul-18 16:20N 38°47' W 075°07'13 6.2
2018-Jul-18 14:11N 38°58' W 074°58'1110.2
2018-Jul-18 13:08N 38°50' W 075°07'211.4
2018-Jul-18 12:56N 38°48' W 075°07'1 1.2
2018-Jul-18 12:17N 38°47' W 075°07'711.2
2018-Jul-18 11:39N 38°53' W 075°04'313.2
2018-Jul-18 11:26N 38°56' W 075°01'4 4.0
2018-Jul-18 10:31N 38°58' W 074°58'0 0.0
2018-Jul-18 09:59N 38°58' W 074°58'0 0.0
2018-Jul-18 09:29N 38°58' W 074°58'0 0.0
2018-Jul-18 08:59N 38°58' W 074°58'0 0.0
2018-Jul-18 08:26N 38°58' W 074°58'0 0.0
2018-Jul-18 07:59N 38°58' W 074°58'0 0.0
2018-Jul-18 06:38N 38°58' W 074°58'0 0.0
2018-Jul-18 06:14N 38°58' W 074°58'0 0.0
2018-Jul-18 05:47N 38°58' W 074°58'0 0.0
2018-Jul-18 05:23N 38°58' W 074°58'0 0.0
2018-Jul-18 04:59N 38°58' W 074°58'0 0.0
2018-Jul-18 04:26N 38°58' W 074°58'0 0.0
2018-Jul-18 03:56N 38°58' W 074°58'0 0.0
2018-Jul-18 03:20N 38°58' W 074°58'0 0.0
2018-Jul-18 02:59N 38°58' W 074°58'0 0.0
2018-Jul-18 02:29N 38°58' W 074°58'0 0.0
2018-Jul-18 01:50N 38°58' W 074°58'0 0.0
2018-Jul-18 01:29N 38°58' W 074°58'0 0.0
2018-Jul-18 00:50N 38°58' W 074°58'0 0.0
2018-Jul-18 00:26N 38°58' W 074°58'0 0.0
2018-Jul-17 23:50N 38°58' W 074°58'0 0.0
2018-Jul-17 23:05N 38°58' W 074°58'0 0.0
2018-Jul-17 22:51N 38°58' W 074°58'2 5.6
2018-Jul-17 22:30N 38°57' W 074°60'510.1
2018-Jul-17 22:00N 38°53' W 075°03'610.8
2018-Jul-17 21:28N 38°48' W 075°07'13 6.8
2018-Jul-17 19:35N 38°58' W 074°58'0 0.0
2018-Jul-17 19:28N 38°58' W 074°58'2 3.3
2018-Jul-17 19:01N 38°57' W 074°59'4 1.6
2018-Jul-17 16:37N 38°55' W 075°03'211.3
2018-Jul-17 16:29N 38°56' W 075°01'4 7.6
2018-Jul-17 15:59N 38°58' W 074°58'1 2.5
2018-Jul-17 15:31N 38°58' W 074°59'3 1.1
2018-Jul-17 13:01N 38°56' W 075°01'010.4
2018-Jul-17 13:01N 38°56' W 075°01'4 7.6
2018-Jul-17 12:31N 38°58' W 074°58'0 0.0
2018-Jul-17 11:56N 38°58' W 074°58'0 0.0
2018-Jul-17 11:28N 38°58' W 074°58'0 0.0
2018-Jul-17 10:01N 38°58' W 074°58'0 0.1
2018-Jul-17 09:58N 38°58' W 074°58'0 0.0
2018-Jul-17 09:26N 38°58' W 074°58'0 0.0
2018-Jul-17 08:55N 38°58' W 074°58'0 0.0
2018-Jul-17 08:13N 38°58' W 074°58'0 0.0
2018-Jul-17 07:58N 38°58' W 074°58'0 0.0
2018-Jul-17 07:25N 38°58' W 074°58'0 0.0
2018-Jul-17 06:55N 38°58' W 074°58'0 0.0
2018-Jul-17 06:28N 38°58' W 074°58'0 0.0
2018-Jul-17 04:25N 38°58' W 074°58'0 0.0
2018-Jul-17 03:50N 38°58' W 074°58'0 0.0
2018-Jul-17 03:29N 38°58' W 074°58'0 0.0
2018-Jul-17 02:49N 38°58' W 074°58'0 0.0
2018-Jul-17 02:01N 38°58' W 074°58'0 0.1
2018-Jul-17 01:59N 38°58' W 074°58'0 0.0
2018-Jul-17 01:22N 38°58' W 074°58'0 0.1
2018-Jul-17 01:01N 38°58' W 074°58'711.6
2018-Jul-17 00:24N 38°53' W 075°04'1 0.9
2018-Jul-16 22:57N 38°52' W 075°05'512.0
2018-Jul-16 22:30N 38°56' W 075°01'3 6.5
2018-Jul-16 22:00N 38°58' W 074°58'1 1.7
2018-Jul-16 21:30N 38°58' W 074°59'510.5
2018-Jul-16 21:01N 38°53' W 075°02'510.9
2018-Jul-16 20:30N 38°49' W 075°06'2 4.0
2018-Jul-16 20:01N 38°47' W 075°07'5 8.1
2018-Jul-16 19:23N 38°52' W 075°05'512.5
2018-Jul-16 19:00N 38°56' W 075°01'4 3.9
2018-Jul-16 18:03N 38°58' W 074°58'2 9.0
2018-Jul-16 17:50N 38°57' W 074°59'9 5.3
2018-Jul-16 16:06N 38°50' W 075°07'511.4
2018-Jul-16 15:38N 38°54' W 075°03'211.8
2018-Jul-16 15:28N 38°56' W 075°01'4 8.4
2018-Jul-16 15:00N 38°58' W 074°58'0 0.1
2018-Jul-16 14:30N 38°58' W 074°58'611.7
2018-Jul-16 14:00N 38°54' W 075°03'612.8
2018-Jul-16 13:30N 38°48' W 075°07'1 2.5
2018-Jul-16 12:58N 38°47' W 075°07'4 9.2
2018-Jul-16 12:30N 38°51' W 075°05'612.2
2018-Jul-16 12:00N 38°56' W 075°01'3 6.8
2018-Jul-16 11:30N 38°58' W 074°58'0 0.0
2018-Jul-16 11:00N 38°58' W 074°58'0 0.0
2018-Jul-16 10:31N 38°58' W 074°58'0 0.0
2018-Jul-16 09:58N 38°58' W 074°58'0 0.0
2018-Jul-16 09:28N 38°58' W 074°58'0 0.0
2018-Jul-16 08:58N 38°58' W 074°58'0 0.0
2018-Jul-16 08:28N 38°58' W 074°58'0 0.0
2018-Jul-16 07:58N 38°58' W 074°58'0 0.0
2018-Jul-16 07:28N 38°58' W 074°58'0 0.0
2018-Jul-16 06:52N 38°58' W 074°58'0 0.0
2018-Jul-16 06:25N 38°58' W 074°58'0 0.0
2018-Jul-16 05:58N 38°58' W 074°58'0 0.0
2018-Jul-16 05:22N 38°58' W 074°58'0 0.0
2018-Jul-16 04:49N 38°58' W 074°58'0 0.0
2018-Jul-16 04:22N 38°58' W 074°58'0 0.0
2018-Jul-16 03:49N 38°58' W 074°58'0 0.0
2018-Jul-16 01:03N 38°58' W 074°58'0 7.8
2018-Jul-16 01:00N 38°58' W 074°58'713.0
2018-Jul-16 00:30N 38°53' W 075°03'6 8.4
2018-Jul-15 23:44N 38°47' W 075°07'2 5.9
2018-Jul-15 23:21N 38°49' W 075°07'411.8
2018-Jul-15 23:00N 38°53' W 075°04'611.6
2018-Jul-15 22:30N 38°57' W 074°60'2 3.7
2018-Jul-15 22:01N 38°58' W 074°58'4 7.4
2018-Jul-15 21:31N 38°56' W 075°01'510.9
2018-Jul-15 21:01N 38°51' W 075°05'5 8.8
2018-Jul-15 20:30N 38°47' W 075°07'0 0.7
2018-Jul-15 19:58N 38°47' W 075°07'711.8
2018-Jul-15 19:25N 38°54' W 075°05'512.3
2018-Jul-15 18:59N 38°57' W 074°60'2 3.9
2018-Jul-15 18:30N 38°58' W 074°58'2 3.5
2018-Jul-15 18:00N 38°57' W 074°59'912.1
2018-Jul-15 17:13N 38°49' W 075°07'6 3.7
2018-Jul-15 15:36N 38°55' W 075°02'311.9
2018-Jul-15 15:19N 38°57' W 074°60'2 5.8
2018-Jul-15 15:00N 38°58' W 074°58'0 0.0
2018-Jul-15 14:31N 38°58' W 074°58'611.4
2018-Jul-15 14:00N 38°54' W 075°03'612.8
2018-Jul-15 13:30N 38°48' W 075°07'1 3.0
2018-Jul-15 13:00N 38°47' W 075°07'4 8.5
2018-Jul-15 12:30N 38°51' W 075°06'611.3
2018-Jul-15 12:00N 38°56' W 075°01'4 7.6
2018-Jul-15 11:30N 38°58' W 074°58'0 0.1
2018-Jul-15 11:00N 38°58' W 074°58'0 0.0
2018-Jul-15 10:30N 38°58' W 074°58'0 0.0
2018-Jul-15 09:57N 38°58' W 074°58'0 0.0
2018-Jul-15 09:30N 38°58' W 074°58'0 0.0
2018-Jul-15 09:00N 38°58' W 074°58'0 0.0
2018-Jul-15 08:18N 38°58' W 074°58'0 0.0
2018-Jul-15 08:00N 38°58' W 074°58'0 0.0
2018-Jul-15 07:27N 38°58' W 074°58'0 0.0
2018-Jul-15 07:00N 38°58' W 074°58'0 0.0
2018-Jul-15 06:30N 38°58' W 074°58'0 0.0
2018-Jul-15 06:00N 38°58' W 074°58'0 0.0
2018-Jul-15 05:27N 38°58' W 074°58'0 0.0
2018-Jul-15 05:00N 38°58' W 074°58'0 0.0
2018-Jul-15 04:30N 38°58' W 074°58'0 0.0
2018-Jul-15 04:00N 38°58' W 074°58'0 0.0
2018-Jul-15 03:27N 38°58' W 074°58'0 0.0
2018-Jul-15 03:00N 38°58' W 074°58'0 0.0
2018-Jul-15 02:30N 38°58' W 074°58'0 0.0
2018-Jul-15 02:00N 38°58' W 074°58'0 0.0
2018-Jul-15 01:25N 38°58' W 074°58'0 0.9
2018-Jul-15 01:00N 38°58' W 074°58'712.6
2018-Jul-15 00:28N 38°52' W 075°03'2 1.3
2018-Jul-14 22:38N 38°55' W 075°02'211.4
2018-Jul-14 22:26N 38°56' W 075°01'3 6.6
2018-Jul-14 22:00N 38°58' W 074°58'1 2.9
2018-Jul-14 21:30N 38°57' W 074°59'611.8
2018-Jul-14 21:00N 38°52' W 075°03'610.9
2018-Jul-14 20:30N 38°48' W 075°07'1 1.5
2018-Jul-14 20:00N 38°47' W 075°07'4 8.7
2018-Jul-14 19:30N 38°51' W 075°06'713.0
2018-Jul-14 19:00N 38°56' W 075°01'3 5.7
2018-Jul-14 18:29N 38°58' W 074°58'2 3.6
2018-Jul-14 18:00N 38°57' W 074°59'611.3
2018-Jul-14 17:30N 38°53' W 075°04'611.4
2018-Jul-14 16:59N 38°47' W 075°07'0 0.7
2018-Jul-14 16:30N 38°47' W 075°07'5 9.7
2018-Jul-14 16:00N 38°52' W 075°05'712.4
2018-Jul-14 15:28N 38°57' W 074°60'2 4.8
2018-Jul-14 15:00N 38°58' W 074°58'3 5.0
2018-Jul-14 14:30N 38°56' W 075°00'1111.0
2018-Jul-14 13:31N 38°47' W 075°07'0 0.1
2018-Jul-14 13:00N 38°47' W 075°07'4 8.8
2018-Jul-14 12:30N 38°51' W 075°06'611.4
2018-Jul-14 12:01N 38°56' W 075°01'4 7.1
2018-Jul-14 11:29N 38°58' W 074°58'0 0.1
2018-Jul-14 11:00N 38°58' W 074°58'0 0.0
2018-Jul-14 10:30N 38°58' W 074°58'0 0.0
2018-Jul-14 10:00N 38°58' W 074°58'0 0.0
2018-Jul-14 09:17N 38°58' W 074°58'0 0.0
2018-Jul-14 08:59N 38°58' W 074°58'0 0.0
2018-Jul-14 08:26N 38°58' W 074°58'0 0.0
2018-Jul-14 08:00N 38°58' W 074°58'0 0.0
2018-Jul-14 07:30N 38°58' W 074°58'0 0.0
2018-Jul-14 07:00N 38°58' W 074°58'0 0.0
2018-Jul-14 06:30N 38°58' W 074°58'0 0.0
2018-Jul-14 06:00N 38°58' W 074°58'0 0.0
2018-Jul-14 05:30N 38°58' W 074°58'0 0.0
2018-Jul-14 04:59N 38°58' W 074°58'0 0.0
2018-Jul-14 04:30N 38°58' W 074°58'0 0.0
2018-Jul-14 04:00N 38°58' W 074°58'0 0.0
2018-Jul-14 03:30N 38°58' W 074°58'0 0.0
2018-Jul-14 03:00N 38°58' W 074°58'0 0.0
2018-Jul-14 02:27N 38°58' W 074°58'0 0.0
2018-Jul-14 01:57N 38°58' W 074°58'0 0.1
2018-Jul-14 01:28N 38°58' W 074°58'2 5.1
2018-Jul-14 01:00N 38°57' W 075°00'612.8
2018-Jul-14 00:31N 38°51' W 075°04'5 9.1
2018-Jul-13 23:59N 38°47' W 075°07'1 2.7
2018-Jul-13 23:30N 38°48' W 075°07'5 9.9
2018-Jul-13 23:00N 38°53' W 075°05'7 9.9
2018-Jul-13 22:21N 38°58' W 074°59'1 3.7
2018-Jul-13 22:00N 38°58' W 074°58'2 3.2
2018-Jul-13 21:29N 38°57' W 074°59'611.9
2018-Jul-13 20:56N 38°51' W 075°03'510.8
2018-Jul-13 20:30N 38°48' W 075°07'1 1.5
2018-Jul-13 19:59N 38°47' W 075°07'5 9.4
2018-Jul-13 19:29N 38°51' W 075°05'9 6.6
2018-Jul-13 18:08N 38°58' W 074°58'2 8.9
2018-Jul-13 17:56N 38°57' W 074°59'711.3
2018-Jul-13 17:17N 38°51' W 075°04'311.2
2018-Jul-13 17:00N 38°48' W 075°07'1 2.4
2018-Jul-13 16:29N 38°47' W 075°07'4 7.3
2018-Jul-13 16:00N 38°50' W 075°06'1010.6
2018-Jul-13 15:02N 38°58' W 074°58'0 0.1
2018-Jul-13 14:57N 38°58' W 074°58'6 6.6
2018-Jul-13 14:00N 38°53' W 075°03'611.5
2018-Jul-13 13:30N 38°48' W 075°07'1 2.8
2018-Jul-13 13:00N 38°47' W 075°07'3 7.0
2018-Jul-13 12:30N 38°50' W 075°06'612.1
2018-Jul-13 12:00N 38°55' W 075°02'4 8.6
2018-Jul-13 11:30N 38°58' W 074°58'0 0.0
2018-Jul-13 10:55N 38°58' W 074°58'0 0.0
2018-Jul-13 10:25N 38°58' W 074°58'0 0.0
2018-Jul-13 09:55N 38°58' W 074°58'0 0.0
2018-Jul-13 09:25N 38°58' W 074°58'0 0.0
2018-Jul-13 08:58N 38°58' W 074°58'0 0.0
2018-Jul-13 08:28N 38°58' W 074°58'0 0.0
2018-Jul-13 07:58N 38°58' W 074°58'0 0.0
2018-Jul-13 07:28N 38°58' W 074°58'0 0.0
2018-Jul-13 06:58N 38°58' W 074°58'0 0.0
2018-Jul-13 06:28N 38°58' W 074°58'0 0.0
2018-Jul-13 05:58N 38°58' W 074°58'0 0.0
2018-Jul-13 05:28N 38°58' W 074°58'0 0.0
2018-Jul-13 04:58N 38°58' W 074°58'0 0.0
2018-Jul-13 04:28N 38°58' W 074°58'0 0.0
2018-Jul-13 03:58N 38°58' W 074°58'0 0.0
2018-Jul-13 03:28N 38°58' W 074°58'0 0.0
2018-Jul-13 02:55N 38°58' W 074°58'0 0.0
2018-Jul-13 02:28N 38°58' W 074°58'0 0.0
2018-Jul-13 01:58N 38°58' W 074°58'0 0.0
2018-Jul-13 01:25N 38°58' W 074°58'0 0.1
2018-Jul-13 01:01N 38°58' W 074°58'611.3
2018-Jul-13 00:30N 38°54' W 075°03'612.5
2018-Jul-13 00:00N 38°49' W 075°07'2 3.3
2018-Jul-12 23:28N 38°47' W 075°07'6 9.2
2018-Jul-12 22:51N 38°52' W 075°05'411.7
2018-Jul-12 22:29N 38°56' W 075°01'4 6.9
2018-Jul-12 21:57N 38°58' W 074°58'1 1.9
2018-Jul-12 21:28N 38°58' W 074°59'612.5
2018-Jul-12 20:57N 38°52' W 075°03'511.5
2018-Jul-12 20:30N 38°48' W 075°07'1 2.5
2018-Jul-12 20:00N 38°47' W 075°07'3 6.2
2018-Jul-12 19:31N 38°50' W 075°06'813.1
2018-Jul-12 18:55N 38°56' W 075°01'3 5.7
2018-Jul-12 18:23N 38°58' W 074°58'0 0.0
2018-Jul-12 17:59N 38°58' W 074°58'3 5.8
2018-Jul-12 17:30N 38°56' W 075°00'611.3
2018-Jul-12 17:00N 38°51' W 075°04'5 9.9
2018-Jul-12 16:30N 38°47' W 075°07'0 0.1
2018-Jul-12 16:00N 38°47' W 075°07'4 8.8
2018-Jul-12 15:31N 38°51' W 075°06'712.6
2018-Jul-12 14:57N 38°57' W 075°00'2 3.7
2018-Jul-12 14:19N 38°58' W 074°58'1 4.5
2018-Jul-12 14:00N 38°57' W 074°59'510.9
2018-Jul-12 13:30N 38°53' W 075°03'611.4
2018-Jul-12 12:59N 38°48' W 075°07'1 2.1
2018-Jul-12 12:30N 38°47' W 075°07'4 7.7
2018-Jul-12 12:00N 38°51' W 075°06'611.2
2018-Jul-12 11:28N 38°56' W 075°02'4 8.6
2018-Jul-12 11:00N 38°58' W 074°58'0 0.0
2018-Jul-12 10:31N 38°58' W 074°58'0 0.0
2018-Jul-12 10:00N 38°58' W 074°58'0 0.0
2018-Jul-12 09:28N 38°58' W 074°58'0 0.0
2018-Jul-12 08:58N 38°58' W 074°58'0 0.0
2018-Jul-12 08:25N 38°58' W 074°58'0 0.0
2018-Jul-12 07:58N 38°58' W 074°58'0 0.0
2018-Jul-12 07:28N 38°58' W 074°58'0 0.0
2018-Jul-12 06:58N 38°58' W 074°58'0 0.0
2018-Jul-12 02:58N 38°58' W 074°58'0 0.0
2018-Jul-12 02:25N 38°58' W 074°58'0 0.0
2018-Jul-12 01:55N 38°58' W 074°58'0 0.0
2018-Jul-12 01:16N 38°58' W 074°58'0 0.1
2018-Jul-12 01:01N 38°58' W 074°58'611.2
2018-Jul-12 00:30N 38°54' W 075°03'612.6
2018-Jul-11 23:59N 38°48' W 075°07'2 3.1
2018-Jul-11 23:30N 38°47' W 075°07'4 8.3
2018-Jul-11 23:00N 38°51' W 075°06'811.6
2018-Jul-11 22:20N 38°57' W 074°60'2 3.0
2018-Jul-11 21:38N 38°58' W 074°58'611.1
2018-Jul-11 21:03N 38°53' W 075°03'6 2.6
2018-Jul-11 18:39N 38°58' W 074°58'0 0.1
2018-Jul-11 18:01N 38°58' W 074°58'0 0.0
2018-Jul-11 18:00N 38°58' W 074°58'2 3.1
2018-Jul-11 17:28N 38°57' W 074°59'511.3
2018-Jul-11 17:00N 38°53' W 075°03'611.4
2018-Jul-11 16:30N 38°48' W 075°07'1 2.2
2018-Jul-11 16:00N 38°47' W 075°07'3 6.5
2018-Jul-11 15:30N 38°50' W 075°06'1011.8
2018-Jul-11 14:37N 38°58' W 074°58'0 0.1
2018-Jul-11 14:20N 38°58' W 074°58'1 3.1
2018-Jul-11 14:00N 38°57' W 074°59'510.9
2018-Jul-11 13:30N 38°53' W 075°03'612.0
2018-Jul-11 13:00N 38°48' W 075°07'1 2.3
2018-Jul-11 12:30N 38°47' W 075°07'3 6.6
2018-Jul-11 12:00N 38°50' W 075°06'611.9
2018-Jul-11 11:30N 38°55' W 075°02'4 9.0
2018-Jul-11 11:01N 38°58' W 074°58'0 0.0
2018-Jul-11 10:30N 38°58' W 074°58'0 0.0
2018-Jul-11 09:59N 38°58' W 074°58'0 0.0
2018-Jul-11 09:29N 38°58' W 074°58'0 0.0
2018-Jul-11 08:59N 38°58' W 074°58'0 0.0
2018-Jul-11 08:26N 38°58' W 074°58'0 0.0
2018-Jul-11 07:59N 38°58' W 074°58'0 0.0
2018-Jul-11 07:29N 38°58' W 074°58'0 0.0
2018-Jul-11 06:59N 38°58' W 074°58'0 0.0
2018-Jul-11 06:29N 38°58' W 074°58'0 0.0
2018-Jul-11 05:59N 38°58' W 074°58'0 0.0
2018-Jul-11 05:29N 38°58' W 074°58'0 0.0
2018-Jul-11 04:59N 38°58' W 074°58'0 0.0
2018-Jul-11 04:29N 38°58' W 074°58'0 0.0
2018-Jul-11 03:59N 38°58' W 074°58'0 0.0
2018-Jul-11 03:29N 38°58' W 074°58'0 0.0
2018-Jul-11 02:59N 38°58' W 074°58'0 0.0
2018-Jul-11 02:29N 38°58' W 074°58'0 0.0
2018-Jul-11 01:59N 38°58' W 074°58'0 0.0
2018-Jul-11 01:29N 38°58' W 074°58'0 0.0
2018-Jul-11 00:59N 38°58' W 074°58'0 0.0
2018-Jul-11 00:29N 38°58' W 074°58'0 0.0
2018-Jul-10 23:59N 38°58' W 074°58'0 0.1
2018-Jul-10 23:30N 38°58' W 074°58'7 3.1
2018-Jul-10 21:15N 38°53' W 075°04'311.7
2018-Jul-10 21:00N 38°55' W 075°02'4 8.5
2018-Jul-10 20:30N 38°58' W 074°58'0 0.2
2018-Jul-10 20:01N 38°58' W 074°58'611.6
2018-Jul-10 19:30N 38°54' W 075°03'612.0
2018-Jul-10 19:00N 38°49' W 075°07'2 3.2
2018-Jul-10 18:27N 38°47' W 075°07'3 7.4
2018-Jul-10 18:00N 38°50' W 075°06'713.0
2018-Jul-10 17:28N 38°56' W 075°01'4 7.6
2018-Jul-10 17:00N 38°58' W 074°58'1 2.5
2018-Jul-10 16:30N 38°57' W 074°59'510.9
2018-Jul-10 16:01N 38°53' W 075°03'611.3
2018-Jul-10 15:30N 38°48' W 075°07'1 2.3
2018-Jul-10 15:00N 38°47' W 075°07'4 7.4
2018-Jul-10 14:30N 38°51' W 075°06'612.6
2018-Jul-10 14:00N 38°56' W 075°01'  

Dump ship's entire track history